createdAt,value
2022-11-02T00:02:35.073Z,5.18
2022-11-02T00:05:23.808Z,5.32
2022-11-02T00:08:06.786Z,4.80
2022-11-02T00:10:49.642Z,5.00
2022-11-02T00:13:35.835Z,5.50
2022-11-02T00:16:22.220Z,4.85
2022-11-02T00:19:05.525Z,5.72
2022-11-02T00:21:48.483Z,5.88
2022-11-02T00:24:33.532Z,5.50
2022-11-02T00:27:16.503Z,4.68
2022-11-02T00:30:00.042Z,4.57
2022-11-02T00:32:44.294Z,5.63
2022-11-02T00:35:27.180Z,4.20
2022-11-02T00:38:10.058Z,5.40
2022-11-02T00:40:52.945Z,5.63
2022-11-02T00:43:36.030Z,6.18
2022-11-02T00:46:20.212Z,5.20
2022-11-02T00:49:04.569Z,5.40
2022-11-02T00:51:50.386Z,6.43
2022-11-02T00:54:33.315Z,5.28
2022-11-02T00:57:16.175Z,5.05
2022-11-02T00:59:59.086Z,5.60
2022-11-02T01:02:42.591Z,4.45
2022-11-02T01:05:26.940Z,4.43
2022-11-02T01:08:09.828Z,4.88
2022-11-02T01:10:52.743Z,4.90
2022-11-02T01:13:35.629Z,5.15
2022-11-02T01:16:18.750Z,4.60
2022-11-02T01:19:01.689Z,4.93
2022-11-02T01:21:45.965Z,7.13
2022-11-02T01:24:28.928Z,5.97
2022-11-02T01:27:12.061Z,5.70
2022-11-02T01:29:55.036Z,5.75
2022-11-02T01:32:37.968Z,5.43
2022-11-02T01:35:20.869Z,5.88
2022-11-02T01:38:05.367Z,4.97
2022-11-02T01:43:33.228Z,5.75
2022-11-02T01:46:19.888Z,5.88
2022-11-02T01:49:07.020Z,6.80
2022-11-02T01:51:56.239Z,6.93
2022-11-02T01:54:43.448Z,6.63
2022-11-02T01:57:28.463Z,7.15
2022-11-02T02:00:13.960Z,5.93
2022-11-02T02:03:02.012Z,7.90
2022-11-02T02:05:48.781Z,7.15
2022-11-02T02:08:38.555Z,6.50
2022-11-02T02:11:32.395Z,6.10
2022-11-02T02:14:17.766Z,5.82
2022-11-02T02:17:20.188Z,5.55
2022-11-02T02:20:10.805Z,5.75
2022-11-02T02:23:31.541Z,6.03
2022-11-02T02:26:57.191Z,6.82
2022-11-02T02:29:52.573Z,6.88
2022-11-02T02:32:43.073Z,7.30
2022-11-02T02:35:31.215Z,7.45
2022-11-02T02:38:23.325Z,9.57
2022-11-02T02:41:12.904Z,11.10
2022-11-02T02:43:58.343Z,11.27
2022-11-02T02:46:50.968Z,11.07
2022-11-02T02:49:39.957Z,10.10
2022-11-02T02:52:25.222Z,9.55
2022-11-02T02:57:55.600Z,8.90
2022-11-02T03:00:39.835Z,10.00
2022-11-02T03:03:26.452Z,10.88
2022-11-02T03:06:18.540Z,10.13
2022-11-02T03:09:11.265Z,8.90
2022-11-02T03:12:05.817Z,8.35
2022-11-02T03:15:05.638Z,9.00
2022-11-02T03:18:06.200Z,9.65
2022-11-02T03:21:03.765Z,9.52
2022-11-02T03:23:53.719Z,7.82
2022-11-02T03:26:46.411Z,7.78
2022-11-02T03:29:39.520Z,10.27
2022-11-02T03:32:28.501Z,9.93
2022-11-02T03:35:19.960Z,10.00
2022-11-02T03:38:11.158Z,10.95
2022-11-02T03:40:57.217Z,9.20
2022-11-02T03:43:42.922Z,8.40
2022-11-02T03:46:27.708Z,8.90
2022-11-02T03:49:15.152Z,8.18
2022-11-02T03:52:06.078Z,9.20
2022-11-02T03:54:59.997Z,7.85
2022-11-02T03:57:47.553Z,8.90
2022-11-02T04:00:35.974Z,8.40
2022-11-02T04:03:25.385Z,9.73
2022-11-02T04:06:10.146Z,11.10
2022-11-02T04:08:53.203Z,9.63
2022-11-02T04:11:56.274Z,9.32
2022-11-02T04:14:39.291Z,9.85
2022-11-02T04:17:44.250Z,10.02
2022-11-02T04:20:30.409Z,10.55
2022-11-02T04:23:30.667Z,10.52
2022-11-02T04:26:13.568Z,9.27
2022-11-02T04:29:01.506Z,9.32
2022-11-02T04:31:45.533Z,10.13
2022-11-02T04:34:29.773Z,12.55
2022-11-02T04:37:26.904Z,9.85
2022-11-02T04:40:10.910Z,9.82
2022-11-02T04:42:53.893Z,9.95
2022-11-02T04:45:38.305Z,9.52
2022-11-02T04:48:21.252Z,9.43
2022-11-02T04:51:04.403Z,8.25
2022-11-02T04:53:48.258Z,8.68
2022-11-02T04:56:31.301Z,8.73
2022-11-02T04:59:14.261Z,9.25
2022-11-02T05:01:58.589Z,8.80
2022-11-02T05:04:41.807Z,9.68
2022-11-02T05:07:24.664Z,10.45
2022-11-02T05:10:09.106Z,10.07
2022-11-02T05:12:58.440Z,8.65
2022-11-02T05:15:44.584Z,9.10
2022-11-02T05:18:30.027Z,8.73
2022-11-02T05:21:14.479Z,8.38
2022-11-02T05:23:57.413Z,9.68
2022-11-02T05:26:40.499Z,8.80
2022-11-02T05:29:24.522Z,8.52
2022-11-02T05:32:08.630Z,8.52
2022-11-02T05:34:52.985Z,8.40
2022-11-02T05:37:35.972Z,7.82
2022-11-02T05:40:20.463Z,8.57
2022-11-02T05:43:05.208Z,7.90
2022-11-02T05:45:55.133Z,8.25
2022-11-02T05:48:38.015Z,8.15
2022-11-02T05:51:22.281Z,7.78
2022-11-02T05:54:05.482Z,8.82
2022-11-02T05:56:48.459Z,7.40
2022-11-02T05:59:31.362Z,7.50
2022-11-02T06:02:14.200Z,7.50
2022-11-02T06:04:57.187Z,10.15
2022-11-02T06:07:41.549Z,7.80
2022-11-02T06:10:24.451Z,6.88
2022-11-02T06:13:07.596Z,6.80
2022-11-02T06:15:50.553Z,6.68
2022-11-02T06:18:33.466Z,7.13
2022-11-02T06:21:16.381Z,6.35
2022-11-02T06:24:00.802Z,6.65
2022-11-02T06:26:43.704Z,6.45
2022-11-02T06:29:26.597Z,6.38
2022-11-02T06:32:09.444Z,6.75
2022-11-02T06:34:52.342Z,6.80
2022-11-02T06:37:35.906Z,6.45
2022-11-02T06:40:22.620Z,6.45
2022-11-02T06:43:23.020Z,6.38
2022-11-02T06:46:06.903Z,7.25
2022-11-02T06:48:49.814Z,5.65
2022-11-02T06:51:32.643Z,5.25
2022-11-02T06:54:15.563Z,5.63
2022-11-02T06:56:59.786Z,6.50
2022-11-02T06:59:42.680Z,6.32
2022-11-02T07:02:25.630Z,6.40
2022-11-02T07:05:09.378Z,6.22
2022-11-02T07:07:53.923Z,5.63
2022-11-02T07:10:36.886Z,5.45
2022-11-02T07:13:21.490Z,5.13
2022-11-02T07:16:04.393Z,5.25
2022-11-02T07:18:47.271Z,5.88
2022-11-02T07:21:30.154Z,5.45
2022-11-02T07:24:13.198Z,4.80
2022-11-02T07:26:56.231Z,5.72
2022-11-02T07:29:40.509Z,4.93
2022-11-02T07:32:23.366Z,4.90
2022-11-02T07:35:07.451Z,4.55
2022-11-02T07:37:57.588Z,5.20
2022-11-02T07:40:40.507Z,4.68
2022-11-02T07:43:24.049Z,4.93
2022-11-02T07:46:16.601Z,4.53
2022-11-02T07:51:42.593Z,3.78
2022-11-02T07:54:26.546Z,3.30
2022-11-02T07:57:09.694Z,3.92
2022-11-02T07:59:52.639Z,3.30
2022-11-02T08:02:36.994Z,3.22
2022-11-02T08:05:19.917Z,3.75
2022-11-02T08:08:05.217Z,3.08
2022-11-02T08:10:50.160Z,3.65
2022-11-02T08:13:33.282Z,3.70
2022-11-02T08:16:16.121Z,4.15
2022-11-02T08:19:00.429Z,4.00
2022-11-02T08:21:43.340Z,3.88
2022-11-02T08:24:26.217Z,3.35
2022-11-02T08:27:09.074Z,3.28
2022-11-02T08:29:52.849Z,3.20
2022-11-02T08:32:35.742Z,3.00
2022-11-02T08:35:20.084Z,3.05
2022-11-02T08:38:03.661Z,3.13
2022-11-02T08:40:46.720Z,3.20
2022-11-02T08:43:29.812Z,2.70
2022-11-02T08:46:15.685Z,2.67
2022-11-02T08:48:59.637Z,2.55
2022-11-02T08:51:43.861Z,2.60
2022-11-02T08:54:26.749Z,3.25
2022-11-02T08:57:09.629Z,2.28
2022-11-02T08:59:52.477Z,2.10
2022-11-02T09:02:35.460Z,2.10
2022-11-02T09:05:18.582Z,2.00
2022-11-02T09:08:05.263Z,1.77
2022-11-02T09:10:51.129Z,1.95
2022-11-02T09:13:34.118Z,2.10
2022-11-02T09:16:17.001Z,1.65
2022-11-02T09:19:00.552Z,1.70
2022-11-02T09:21:43.472Z,1.60
2022-11-02T09:24:27.712Z,1.65
2022-11-02T09:27:10.553Z,1.50
2022-11-02T09:29:53.433Z,1.90
2022-11-02T09:32:36.444Z,1.50
2022-11-02T09:35:19.308Z,1.48
2022-11-02T09:38:02.257Z,1.30
2022-11-02T09:40:53.107Z,1.48
2022-11-02T09:43:46.493Z,1.20
2022-11-02T09:46:33.130Z,1.20
2022-11-02T09:49:18.842Z,1.17
2022-11-02T09:52:02.865Z,1.20
2022-11-02T09:54:50.528Z,1.30
2022-11-02T09:57:34.984Z,1.35
2022-11-02T10:00:18.617Z,0.98
2022-11-02T10:03:10.803Z,1.38
2022-11-02T10:05:59.797Z,1.35
2022-11-02T10:08:54.916Z,1.30
2022-11-02T10:14:32.950Z,1.17
2022-11-02T10:17:21.621Z,1.17
2022-11-02T10:20:12.565Z,1.20
2022-11-02T10:23:03.542Z,1.15
2022-11-02T10:25:48.981Z,1.02
2022-11-02T10:28:35.250Z,1.00
2022-11-02T10:31:26.596Z,1.55
2022-11-02T10:34:22.783Z,1.00
2022-11-02T10:37:25.774Z,0.90
2022-11-02T10:40:23.829Z,0.90
2022-11-02T10:43:17.384Z,1.13
2022-11-02T10:46:13.080Z,1.17
2022-11-02T10:49:07.679Z,1.38
2022-11-02T10:51:51.360Z,1.92
2022-11-02T10:54:34.871Z,1.80
2022-11-02T10:57:24.519Z,1.20
2022-11-02T11:00:29.159Z,1.15
2022-11-02T11:03:14.434Z,1.27
2022-11-02T11:06:01.121Z,1.00
2022-11-02T11:08:45.906Z,1.10
2022-11-02T11:20:34.520Z,1.10
2022-11-02T11:23:24.332Z,1.30
2022-11-02T11:26:13.064Z,1.10
2022-11-02T11:28:57.206Z,1.10
2022-11-02T11:31:40.134Z,0.85
2022-11-02T11:34:39.454Z,1.20
2022-11-02T11:37:23.324Z,0.93
2022-11-02T11:40:17.702Z,0.90
2022-11-02T11:43:02.362Z,1.00
2022-11-02T11:48:40.776Z,1.20
2022-11-02T11:51:29.504Z,1.30
2022-11-02T11:54:22.222Z,1.33
2022-11-02T11:57:25.400Z,1.40
2022-11-02T12:00:28.402Z,1.20
2022-11-02T12:03:12.847Z,1.20
2022-11-02T12:06:05.108Z,1.15
2022-11-02T12:08:59.026Z,1.05
2022-11-02T12:11:54.710Z,1.27
2022-11-02T12:14:46.745Z,1.27
2022-11-02T12:17:41.454Z,1.40
2022-11-02T12:20:45.312Z,1.38
2022-11-02T12:23:51.665Z,1.90
2022-11-02T12:26:49.932Z,1.60
2022-11-02T12:29:54.678Z,1.38
2022-11-02T12:33:05.643Z,1.40
2022-11-02T12:35:58.346Z,1.58
2022-11-02T12:38:52.345Z,2.00
2022-11-02T12:41:54.095Z,1.92
2022-11-02T12:44:50.192Z,2.50
2022-11-02T12:47:49.625Z,2.45
2022-11-02T12:50:45.145Z,1.80
2022-11-02T12:53:39.271Z,1.83
2022-11-02T12:56:26.089Z,1.30
2022-11-02T12:59:15.808Z,1.15
2022-11-02T13:04:59.261Z,0.85
2022-11-02T13:07:47.048Z,1.10
2022-11-02T13:10:34.346Z,0.98
2022-11-02T13:13:21.558Z,0.90
2022-11-02T13:16:07.314Z,1.00
2022-11-02T13:18:54.073Z,0.98
2022-11-02T13:21:44.151Z,0.95
2022-11-02T13:24:32.303Z,1.02
2022-11-02T13:27:36.783Z,0.95
2022-11-02T13:30:21.063Z,0.68
2022-11-02T13:33:10.176Z,1.05
2022-11-02T13:35:54.744Z,1.05
2022-11-02T13:38:44.035Z,1.00
2022-11-02T13:41:51.381Z,1.10
2022-11-02T13:45:18.508Z,1.00
2022-11-02T13:48:27.610Z,0.90
2022-11-02T13:51:24.648Z,0.95
2022-11-02T13:54:15.373Z,1.17
2022-11-02T13:56:59.913Z,1.10
2022-11-02T13:59:48.522Z,1.20
2022-11-02T14:02:36.777Z,1.20
2022-11-02T14:05:28.935Z,1.20
2022-11-02T14:08:22.462Z,2.78
2022-11-02T14:11:27.926Z,1.73
2022-11-02T14:17:15.252Z,0.85
2022-11-02T14:20:04.619Z,0.95
2022-11-02T14:23:31.351Z,1.05
2022-11-02T14:26:54.639Z,0.80
2022-11-02T14:29:39.980Z,0.70
2022-11-02T14:32:43.793Z,1.00
2022-11-02T14:35:41.664Z,0.80
2022-11-02T14:38:59.426Z,0.80
2022-11-02T14:42:01.564Z,0.70
2022-11-02T14:45:08.751Z,0.95
2022-11-02T14:47:58.827Z,0.90
2022-11-02T14:50:41.932Z,0.93
2022-11-02T14:53:27.467Z,0.98
2022-11-02T14:56:10.440Z,1.23
2022-11-02T14:58:57.697Z,1.40
2022-11-02T15:01:52.620Z,0.80
2022-11-02T15:04:36.579Z,1.00
2022-11-02T15:07:23.707Z,1.10
2022-11-02T15:10:35.754Z,0.82
2022-11-02T15:13:35.550Z,1.00
2022-11-02T15:16:25.758Z,1.20
2022-11-02T15:19:37.601Z,1.10
2022-11-02T15:22:39.838Z,0.80
2022-11-02T15:25:27.444Z,0.77
2022-11-02T15:28:16.043Z,0.80
2022-11-02T15:31:02.976Z,0.90
2022-11-02T15:33:50.414Z,1.00
2022-11-02T15:36:36.643Z,0.90
2022-11-02T15:39:19.920Z,1.08
2022-11-02T15:42:05.880Z,1.10
2022-11-02T15:45:46.463Z,1.17
2022-11-02T15:48:36.873Z,1.30
2022-11-02T15:51:30.645Z,1.13
2022-11-02T15:54:24.626Z,1.30
2022-11-02T15:57:20.615Z,1.48
2022-11-02T16:00:18.600Z,1.52
2022-11-02T16:03:04.015Z,1.30
2022-11-02T16:05:51.295Z,1.45
2022-11-02T16:08:37.964Z,1.25
2022-11-02T16:11:21.408Z,1.52
2022-11-02T16:14:17.570Z,1.02
2022-11-02T16:17:00.424Z,1.20
2022-11-02T16:19:43.337Z,0.75
2022-11-02T16:22:27.981Z,1.10
2022-11-02T16:25:18.765Z,1.13
2022-11-02T16:28:14.995Z,1.10
2022-11-02T16:34:00.445Z,0.77
2022-11-02T16:36:43.663Z,1.00
2022-11-02T16:39:30.349Z,1.02
2022-11-02T16:42:19.005Z,1.00
2022-11-02T16:45:04.767Z,1.20
2022-11-02T16:47:47.686Z,1.10
2022-11-02T16:50:30.720Z,1.00
2022-11-02T16:53:29.233Z,0.95
2022-11-02T16:56:27.656Z,1.10
2022-11-02T16:59:16.262Z,2.45
2022-11-02T17:02:01.643Z,3.38
2022-11-02T17:04:48.103Z,2.53
2022-11-02T17:07:34.025Z,1.73
2022-11-02T17:10:21.985Z,1.30
2022-11-02T17:13:07.613Z,1.35
2022-11-02T17:15:53.405Z,1.10
2022-11-02T17:18:36.626Z,0.80
2022-11-02T17:21:31.118Z,1.20
2022-11-02T17:24:30.980Z,1.17
2022-11-02T17:27:18.698Z,1.02
2022-11-02T17:30:01.789Z,0.88
2022-11-02T17:32:46.335Z,1.15
2022-11-02T17:35:29.355Z,1.17
2022-11-02T17:38:12.781Z,0.90
2022-11-02T17:40:56.368Z,0.98
2022-11-02T17:43:38.312Z,1.00
2022-11-02T17:46:21.313Z,0.90
2022-11-02T17:49:05.554Z,1.10
2022-11-02T17:51:48.880Z,1.10
2022-11-02T17:54:31.909Z,1.70
2022-11-02T17:57:16.063Z,1.55
2022-11-02T17:59:58.952Z,1.27
2022-11-02T18:02:42.317Z,1.60
2022-11-02T18:05:28.604Z,1.77
2022-11-02T18:08:11.680Z,1.52
2022-11-02T18:10:54.712Z,1.80
2022-11-02T18:13:37.731Z,1.40
2022-11-02T18:16:20.773Z,1.10
2022-11-02T18:19:03.670Z,1.42
2022-11-02T18:21:49.704Z,1.55
2022-11-02T18:24:33.493Z,1.30
2022-11-02T18:27:16.459Z,1.40
2022-11-02T18:29:59.424Z,1.10
2022-11-02T18:32:44.119Z,1.23
2022-11-02T18:35:27.322Z,1.30
2022-11-02T18:38:11.653Z,1.55
2022-11-02T18:40:54.531Z,1.38
2022-11-02T18:43:37.398Z,1.50
2022-11-02T18:46:20.435Z,1.50
2022-11-02T18:49:03.650Z,1.50
2022-11-02T18:51:47.672Z,1.33
2022-11-02T18:54:32.236Z,1.65
2022-11-02T18:57:15.142Z,1.58
2022-11-02T18:59:58.155Z,1.70
2022-11-02T19:02:41.796Z,1.77
2022-11-02T19:05:42.766Z,1.77
2022-11-02T19:08:43.416Z,1.80
2022-11-02T19:11:27.921Z,1.50
2022-11-02T19:14:10.825Z,1.50
2022-11-02T19:16:53.863Z,1.13
2022-11-02T19:19:37.608Z,1.35
2022-11-02T19:22:22.901Z,1.33
2022-11-02T19:25:06.499Z,1.48
2022-11-02T19:27:50.771Z,1.15
2022-11-02T19:30:33.908Z,1.13
2022-11-02T19:33:16.797Z,1.40
2022-11-02T19:35:59.920Z,1.27
2022-11-02T19:38:42.782Z,1.40
2022-11-02T19:41:25.722Z,1.38
2022-11-02T19:44:09.990Z,1.20
2022-11-02T19:46:53.168Z,1.60
2022-11-02T19:49:36.024Z,1.63
2022-11-02T19:52:19.013Z,1.27
2022-11-02T19:55:01.993Z,1.60
2022-11-02T19:57:44.958Z,1.17
2022-11-02T20:00:29.325Z,1.05
2022-11-02T20:03:12.727Z,1.13
2022-11-02T20:06:00.604Z,1.23
2022-11-02T20:08:44.019Z,1.10
2022-11-02T20:11:28.486Z,1.30
2022-11-02T20:14:12.459Z,1.08
2022-11-02T20:17:10.576Z,1.25
2022-11-02T20:19:53.805Z,1.02
2022-11-02T20:22:38.573Z,1.58
2022-11-02T20:25:22.934Z,1.08
2022-11-02T20:28:06.470Z,1.10
2022-11-02T20:30:49.885Z,0.87
2022-11-02T20:33:34.897Z,1.08
2022-11-02T20:36:17.854Z,1.40
2022-11-02T20:39:03.298Z,1.60
2022-11-02T20:41:46.174Z,1.90
2022-11-02T20:44:29.029Z,2.10
2022-11-02T20:47:11.952Z,1.75
2022-11-02T20:49:56.162Z,1.55
2022-11-02T20:52:39.017Z,1.70
2022-11-02T20:55:22.341Z,1.42
2022-11-02T20:58:05.276Z,1.58
2022-11-02T21:00:48.905Z,1.20
2022-11-02T21:03:31.821Z,1.30
2022-11-02T21:06:16.006Z,1.40
2022-11-02T21:08:59.552Z,1.15
2022-11-02T21:12:00.019Z,1.30
2022-11-02T21:14:42.942Z,1.40
2022-11-02T21:17:25.857Z,1.15
2022-11-02T21:23:14.521Z,1.33
2022-11-02T21:25:59.758Z,1.38
2022-11-02T21:28:44.642Z,1.17
2022-11-02T21:31:27.564Z,1.20
2022-11-02T21:34:10.425Z,1.40
2022-11-02T21:36:53.512Z,1.30
2022-11-02T21:39:38.003Z,1.23
2022-11-02T21:42:20.854Z,0.90
2022-11-02T21:45:04.592Z,1.25
2022-11-02T21:47:50.531Z,1.02
2022-11-02T21:50:33.420Z,1.10
2022-11-02T21:53:16.271Z,1.00
2022-11-02T21:56:02.284Z,0.95
2022-11-02T21:58:46.578Z,0.88
2022-11-02T22:01:47.144Z,1.30
2022-11-02T22:04:32.068Z,1.10
2022-11-02T22:07:15.115Z,1.20
2022-11-02T22:09:57.985Z,1.25
2022-11-02T22:12:59.832Z,1.30
2022-11-02T22:15:42.698Z,1.15
2022-11-02T22:18:25.537Z,1.15
2022-11-02T22:21:08.591Z,1.17
2022-11-02T22:23:52.746Z,1.20
2022-11-02T22:26:37.475Z,1.20
2022-11-02T22:32:04.664Z,0.80
2022-11-02T22:34:47.957Z,1.17
2022-11-02T22:37:48.433Z,1.10
2022-11-02T22:40:31.327Z,1.20
2022-11-02T22:43:14.226Z,1.20
2022-11-02T22:46:02.447Z,1.30
2022-11-02T22:48:45.371Z,1.05
2022-11-02T22:51:30.151Z,1.05
2022-11-02T22:54:15.654Z,1.30
2022-11-02T22:56:58.611Z,0.80
2022-11-02T22:59:41.589Z,1.10
2022-11-02T23:02:26.053Z,0.73
2022-11-02T23:05:09.741Z,0.90
2022-11-02T23:07:52.650Z,0.93
2022-11-02T23:10:54.661Z,1.20
2022-11-02T23:13:37.622Z,1.10
2022-11-02T23:16:22.998Z,0.90
2022-11-02T23:19:28.356Z,1.00
2022-11-02T23:22:31.151Z,1.00
2022-11-02T23:25:15.247Z,1.27
2022-11-02T23:28:16.570Z,1.00
2022-11-02T23:31:16.924Z,0.77
2022-11-02T23:33:59.777Z,0.90
2022-11-02T23:36:43.425Z,1.10
2022-11-02T23:39:42.813Z,0.98
2022-11-02T23:42:25.742Z,0.93
2022-11-02T23:45:10.364Z,0.70
2022-11-02T23:51:01.592Z,1.20
2022-11-02T23:54:03.551Z,0.80
2022-11-02T23:56:46.472Z,0.70
2022-11-02T23:59:29.740Z,0.82
